Time;durP1;ratioP1;P1;durP2;ratioP2;P2;SDS_P1;SDS_P2;PMS_P1;PMS_P2;Temp;Humidity;BMP_temperature;BMP_pressure;BME280_temperature;BME280_humidity;BME280_pressure;Samples;Min_cycle;Max_cycle;Signal;HPM_P1;HPM_P2
2023/06/29 00:00:13;;;;;;;7.90;5.57;;;;;;;;;;4955735;29;20423;-80
2023/06/29 00:02:39;;;;;;;10.40;5.07;;;;;;;;;;4955461;29;20431;-80
2023/06/29 00:05:06;;;;;;;7.70;5.53;;;;;;;;;;4955943;29;20474;-80
2023/06/29 00:07:33;;;;;;;13.07;5.97;;;;;;;;;;4938179;29;20853;-80
2023/06/29 00:10:00;;;;;;;7.70;5.40;;;;;;;;;;4938879;29;20420;-80
2023/06/29 00:12:26;;;;;;;11.80;5.77;;;;;;;;;;4955630;29;20439;-81
2023/06/29 00:14:52;;;;;;;9.13;4.80;;;;;;;;;;4938439;29;20387;-79
2023/06/29 00:17:19;;;;;;;8.70;5.17;;;;;;;;;;4955477;29;20778;-80
2023/06/29 00:19:47;;;;;;;8.20;4.87;;;;;;;;;;4955344;29;20420;-80
2023/06/29 00:22:13;;;;;;;5.60;4.27;;;;;;;;;;4938885;29;20434;-79
2023/06/29 00:24:42;;;;;;;7.73;4.20;;;;;;;;;;4938135;29;20408;-79
2023/06/29 00:27:09;;;;;;;7.60;4.63;;;;;;;;;;4937962;29;20447;-80
2023/06/29 00:29:36;;;;;;;8.30;5.57;;;;;;;;;;4937960;29;20815;-79
2023/06/29 00:32:02;;;;;;;9.67;5.27;;;;;;;;;;4956153;29;20391;-80
2023/06/29 00:34:28;;;;;;;8.23;4.67;;;;;;;;;;4938077;29;20462;-80
2023/06/29 00:36:54;;;;;;;7.57;5.40;;;;;;;;;;4939040;29;20423;-80
2023/06/29 00:39:20;;;;;;;7.50;5.30;;;;;;;;;;4938247;29;20844;-79
2023/06/29 00:41:56;;;;;;;8.57;5.47;;;;;;;;;;4937908;29;20412;-80
2023/06/29 00:44:22;;;;;;;10.10;5.10;;;;;;;;;;4955331;29;20385;-80
2023/06/29 00:46:49;;;;;;;7.23;5.77;;;;;;;;;;4955400;29;20459;-80
2023/06/29 00:49:15;;;;;;;7.13;5.23;;;;;;;;;;4938528;29;20468;-80
2023/06/29 00:51:41;;;;;;;6.60;4.93;;;;;;;;;;4938103;29;20899;-80
2023/06/29 00:54:08;;;;;;;8.57;5.27;;;;;;;;;;4955208;29;20427;-80
2023/06/29 00:56:35;;;;;;;7.03;5.07;;;;;;;;;;4954824;29;20469;-80
2023/06/29 00:59:02;;;;;;;8.40;4.87;;;;;;;;;;4938425;29;20434;-80
2023/06/29 01:01:28;;;;;;;9.77;5.80;;;;;;;;;;4954804;29;20405;-80
2023/06/29 01:03:58;;;;;;;9.90;5.50;;;;;;;;;;4955102;29;20423;-80
2023/06/29 01:06:29;;;;;;;7.97;5.00;;;;;;;;;;4937945;29;20443;-80
2023/06/29 01:08:58;;;;;;;7.23;5.27;;;;;;;;;;4955232;29;20379;-80
2023/06/29 01:11:24;;;;;;;7.83;5.33;;;;;;;;;;4937727;29;20507;-80
2023/06/29 01:13:51;;;;;;;10.27;5.70;;;;;;;;;;4955007;29;20413;-79
2023/06/29 01:16:19;;;;;;;9.87;6.07;;;;;;;;;;4955038;29;20477;-80
2023/06/29 01:18:45;;;;;;;9.50;5.37;;;;;;;;;;4955234;29;20505;-79
2023/06/29 01:21:12;;;;;;;10.63;6.17;;;;;;;;;;4938088;29;20421;-80
2023/06/29 01:23:39;;;;;;;10.40;5.97;;;;;;;;;;4955072;29;20384;-80
2023/06/29 01:26:05;;;;;;;10.63;5.73;;;;;;;;;;4937867;29;20484;-79
2023/06/29 01:28:32;;;;;;;12.13;5.90;;;;;;;;;;4922063;29;20447;-80
2023/06/29 01:31:02;;;;;;;10.93;5.70;;;;;;;;;;4955325;29;20416;-80
2023/06/29 01:33:29;;;;;;;8.50;5.83;;;;;;;;;;4955081;29;20388;-79
2023/06/29 01:36:00;;;;;;;11.53;6.60;;;;;;;;;;4921996;29;20414;-80
2023/06/29 01:38:52;;;;;;;9.23;5.70;;;;;;;;;;4954949;29;20430;-80
2023/06/29 01:41:19;;;;;;;10.00;5.97;;;;;;;;;;4955062;29;20372;-80
2023/06/29 01:43:46;;;;;;;9.10;6.30;;;;;;;;;;4937632;29;20495;-79
2023/06/29 01:46:13;;;;;;;7.77;5.83;;;;;;;;;;4938894;29;20944;-80
2023/06/29 01:48:39;;;;;;;11.23;5.83;;;;;;;;;;4941106;29;20794;-80
2023/06/29 01:51:07;;;;;;;7.73;6.93;;;;;;;;;;4958169;29;20384;-80
2023/06/29 01:53:36;;;;;;;7.17;5.87;;;;;;;;;;4940563;29;20435;-80
2023/06/29 01:56:02;;;;;;;7.63;5.90;;;;;;;;;;4958319;29;20432;-79
2023/06/29 01:58:28;;;;;;;10.00;5.73;;;;;;;;;;4941202;29;20402;-79
2023/06/29 02:00:54;;;;;;;6.70;5.67;;;;;;;;;;4957844;29;20439;-79
2023/06/29 02:03:20;;;;;;;7.30;5.87;;;;;;;;;;4958099;29;20496;-79
2023/06/29 02:05:46;;;;;;;11.97;6.43;;;;;;;;;;4940725;29;20430;-79
2023/06/29 02:08:12;;;;;;;8.80;6.07;;;;;;;;;;4941152;29;20408;-79
2023/06/29 02:10:38;;;;;;;8.40;5.67;;;;;;;;;;4958015;29;20876;-80
2023/06/29 02:13:04;;;;;;;7.10;6.13;;;;;;;;;;4940923;29;20611;-80
2023/06/29 02:15:30;;;;;;;8.40;6.17;;;;;;;;;;4941120;29;20387;-79
2023/06/29 02:17:56;;;;;;;10.23;5.87;;;;;;;;;;4940523;29;20756;-80
2023/06/29 02:20:22;;;;;;;8.00;6.20;;;;;;;;;;4940822;29;20402;-79
2023/06/29 02:22:50;;;;;;;9.07;6.33;;;;;;;;;;4957711;29;20380;-80
2023/06/29 02:25:17;;;;;;;9.10;6.70;;;;;;;;;;4957910;29;20399;-79
2023/06/29 02:27:43;;;;;;;9.33;6.57;;;;;;;;;;4957533;29;20504;-80
2023/06/29 02:30:09;;;;;;;9.17;6.30;;;;;;;;;;4958366;29;20440;-79
2023/06/29 02:32:35;;;;;;;9.37;5.20;;;;;;;;;;4940203;29;20522;-80
2023/06/29 02:35:01;;;;;;;10.00;5.33;;;;;;;;;;4940801;29;20378;-80
2023/06/29 02:37:27;;;;;;;7.67;5.90;;;;;;;;;;4940569;29;20980;-79
2023/06/29 02:39:53;;;;;;;12.27;6.53;;;;;;;;;;4957371;29;20429;-79
2023/06/29 02:42:19;;;;;;;6.00;4.70;;;;;;;;;;4957691;29;20464;-79
2023/06/29 02:44:45;;;;;;;10.33;5.80;;;;;;;;;;4957352;29;20795;-80
2023/06/29 02:47:11;;;;;;;11.33;6.67;;;;;;;;;;4924255;29;20484;-80
2023/06/29 02:49:37;;;;;;;10.90;6.43;;;;;;;;;;4940420;29;20401;-80
2023/06/29 02:52:03;;;;;;;7.90;5.93;;;;;;;;;;4957638;29;20481;-79
2023/06/29 02:54:29;;;;;;;8.43;6.03;;;;;;;;;;4957128;29;20514;-80
2023/06/29 02:56:55;;;;;;;10.97;6.10;;;;;;;;;;4940020;29;20527;-79
2023/06/29 02:59:21;;;;;;;10.73;6.13;;;;;;;;;;4940597;29;20468;-80
2023/06/29 03:01:47;;;;;;;13.80;6.10;;;;;;;;;;4957060;29;20411;-80
2023/06/29 03:04:13;;;;;;;6.53;5.60;;;;;;;;;;4940224;29;20540;-79
2023/06/29 03:06:39;;;;;;;8.30;6.27;;;;;;;;;;4956964;29;20457;-80
2023/06/29 03:09:06;;;;;;;11.33;6.17;;;;;;;;;;4924329;29;20436;-80
2023/06/29 03:11:32;;;;;;;15.30;5.30;;;;;;;;;;4939700;29;20991;-79
2023/06/29 03:13:58;;;;;;;6.23;5.43;;;;;;;;;;4956947;29;20777;-80
2023/06/29 03:16:24;;;;;;;6.17;5.03;;;;;;;;;;4939978;29;20507;-80
2023/06/29 03:18:50;;;;;;;6.87;5.10;;;;;;;;;;4956864;29;20409;-79
2023/06/29 03:21:18;;;;;;;15.13;5.70;;;;;;;;;;4957038;29;20383;-80
2023/06/29 03:23:44;;;;;;;10.53;5.87;;;;;;;;;;4956681;29;20988;-80
2023/06/29 03:26:10;;;;;;;7.80;5.17;;;;;;;;;;4939728;29;20455;-80
2023/06/29 03:28:36;;;;;;;8.80;5.43;;;;;;;;;;4939429;29;21012;-80
2023/06/29 03:31:02;;;;;;;8.83;4.50;;;;;;;;;;4956673;29;20387;-80
2023/06/29 03:33:27;;;;;;;8.77;5.73;;;;;;;;;;4956868;29;20890;-80
2023/06/29 03:35:53;;;;;;;12.27;5.63;;;;;;;;;;4956646;29;20421;-80
2023/06/29 03:38:19;;;;;;;12.87;6.00;;;;;;;;;;4956778;29;20427;-80
2023/06/29 03:40:46;;;;;;;8.57;5.27;;;;;;;;;;4956625;29;20417;-80
2023/06/29 03:43:12;;;;;;;8.20;4.97;;;;;;;;;;4939221;29;20383;-80
2023/06/29 03:45:38;;;;;;;15.53;5.50;;;;;;;;;;4923665;29;20427;-85
2023/06/29 03:48:04;;;;;;;10.63;5.03;;;;;;;;;;4939512;29;20403;-80
2023/06/29 03:50:30;;;;;;;7.03;5.13;;;;;;;;;;4939422;29;20409;-80
2023/06/29 03:52:56;;;;;;;6.90;4.97;;;;;;;;;;4956188;29;20520;-80
2023/06/29 03:55:24;;;;;;;8.10;4.40;;;;;;;;;;4939620;29;20406;-80
2023/06/29 03:57:50;;;;;;;8.93;5.27;;;;;;;;;;4956439;29;20874;-81
2023/06/29 04:00:16;;;;;;;5.63;4.57;;;;;;;;;;4956231;29;20416;-80
2023/06/29 04:02:43;;;;;;;12.23;5.40;;;;;;;;;;4938852;29;20391;-80
2023/06/29 04:05:09;;;;;;;9.50;5.23;;;;;;;;;;4956404;29;20795;-79
2023/06/29 04:07:36;;;;;;;7.07;4.77;;;;;;;;;;4956037;29;20468;-80
2023/06/29 04:10:02;;;;;;;6.80;4.17;;;;;;;;;;4955476;28;20412;-80
2023/06/29 04:12:28;;;;;;;5.27;4.40;;;;;;;;;;4956206;29;20872;-79
2023/06/29 04:14:54;;;;;;;6.40;4.30;;;;;;;;;;4922839;29;20416;-80
2023/06/29 04:17:20;;;;;;;7.13;5.00;;;;;;;;;;4956407;29;20383;-79
2023/06/29 04:19:46;;;;;;;6.27;4.80;;;;;;;;;;4955766;29;20408;-80
2023/06/29 04:22:12;;;;;;;7.17;4.70;;;;;;;;;;4956094;29;20902;-80
2023/06/29 04:24:38;;;;;;;4.83;4.30;;;;;;;;;;4938823;29;20420;-79
2023/06/29 04:27:04;;;;;;;10.23;4.57;;;;;;;;;;4955502;29;20518;-79
2023/06/29 04:29:30;;;;;;;6.00;5.10;;;;;;;;;;4939061;29;20412;-79
2023/06/29 04:31:57;;;;;;;7.03;4.20;;;;;;;;;;4955802;29;20372;-79
2023/06/29 04:34:23;;;;;;;7.07;4.50;;;;;;;;;;4956117;29;20543;-79
2023/06/29 04:36:49;;;;;;;6.00;3.73;;;;;;;;;;4955627;29;20456;-80
2023/06/29 04:39:15;;;;;;;11.50;5.03;;;;;;;;;;4938720;29;20412;-79
2023/06/29 04:41:42;;;;;;;8.40;3.87;;;;;;;;;;4955337;29;20773;-84
2023/06/29 04:44:08;;;;;;;6.80;3.87;;;;;;;;;;4956258;29;20495;-79
2023/06/29 04:46:36;;;;;;;10.60;3.90;;;;;;;;;;4955677;29;20472;-79
2023/06/29 04:49:05;;;;;;;8.10;3.97;;;;;;;;;;4955679;29;20789;-80
2023/06/29 04:51:31;;;;;;;5.30;4.00;;;;;;;;;;4955862;29;20452;-79
2023/06/29 04:53:57;;;;;;;6.10;3.93;;;;;;;;;;4955734;29;20460;-80
2023/06/29 04:56:23;;;;;;;6.97;3.80;;;;;;;;;;4938834;29;20459;-79
2023/06/29 04:58:48;;;;;;;7.93;4.17;;;;;;;;;;4938401;29;20482;-80
2023/06/29 05:01:14;;;;;;;5.80;4.00;;;;;;;;;;4938742;29;20801;-79
2023/06/29 05:03:40;;;;;;;5.23;4.00;;;;;;;;;;4955634;29;20417;-80
2023/06/29 05:06:06;;;;;;;9.87;3.87;;;;;;;;;;4938133;29;20499;-79
2023/06/29 05:08:32;;;;;;;6.33;3.93;;;;;;;;;;4938658;29;20408;-80
2023/06/29 05:10:58;;;;;;;5.17;3.57;;;;;;;;;;4955252;29;20409;-80
2023/06/29 05:13:24;;;;;;;8.40;4.20;;;;;;;;;;4955594;29;20379;-80
2023/06/29 05:15:50;;;;;;;6.87;3.90;;;;;;;;;;4938212;29;20399;-80
2023/06/29 05:18:16;;;;;;;6.20;4.13;;;;;;;;;;4955637;29;20409;-79
2023/06/29 05:20:42;;;;;;;7.37;4.73;;;;;;;;;;4939198;29;20447;-79
2023/06/29 05:23:11;;;;;;;7.90;4.20;;;;;;;;;;4959354;29;20419;-80
2023/06/29 05:25:38;;;;;;;6.83;3.90;;;;;;;;;;4959363;29;20745;-80
2023/06/29 05:28:04;;;;;;;8.30;4.20;;;;;;;;;;4958901;29;20487;-80
2023/06/29 05:30:30;;;;;;;3.90;3.47;;;;;;;;;;4959090;29;20416;-79
2023/06/29 05:32:56;;;;;;;7.93;4.60;;;;;;;;;;4942107;29;20909;-79
2023/06/29 05:35:22;;;;;;;4.70;3.90;;;;;;;;;;4942137;29;20416;-79
2023/06/29 05:37:48;;;;;;;7.10;4.23;;;;;;;;;;4958957;29;20391;-80
2023/06/29 05:40:15;;;;;;;7.03;4.30;;;;;;;;;;4959299;29;20388;-79
2023/06/29 05:42:41;;;;;;;7.33;4.53;;;;;;;;;;4941714;29;20489;-79
2023/06/29 05:45:07;;;;;;;5.17;3.50;;;;;;;;;;4958807;29;20455;-80
2023/06/29 05:47:33;;;;;;;8.73;3.53;;;;;;;;;;4941644;29;20475;-80
2023/06/29 05:49:59;;;;;;;6.87;4.10;;;;;;;;;;4925499;29;20449;-80
2023/06/29 05:52:25;;;;;;;10.83;4.40;;;;;;;;;;4941408;29;20420;-80
2023/06/29 05:54:51;;;;;;;8.13;4.10;;;;;;;;;;4941340;29;20463;-80
2023/06/29 05:57:17;;;;;;;7.23;3.80;;;;;;;;;;4958821;29;20420;-80
2023/06/29 05:59:43;;;;;;;5.70;3.30;;;;;;;;;;4958748;29;20383;-79
2023/06/29 06:02:09;;;;;;;10.97;4.40;;;;;;;;;;4941235;29;20432;-80
2023/06/29 06:04:35;;;;;;;5.60;3.37;;;;;;;;;;4941620;29;20379;-80
2023/06/29 06:07:01;;;;;;;5.57;3.80;;;;;;;;;;4925203;29;20468;-80
2023/06/29 06:09:28;;;;;;;4.83;3.57;;;;;;;;;;4958519;29;20791;-80
2023/06/29 06:11:54;;;;;;;5.40;3.63;;;;;;;;;;4958396;29;20828;-80
2023/06/29 06:14:20;;;;;;;7.07;4.27;;;;;;;;;;4925352;29;20427;-80
2023/06/29 06:16:46;;;;;;;7.00;4.20;;;;;;;;;;4925455;29;20464;-84
2023/06/29 06:19:12;;;;;;;9.10;4.20;;;;;;;;;;4958207;29;20939;-80
2023/06/29 06:21:38;;;;;;;7.60;4.50;;;;;;;;;;4958455;29;20413;-80
2023/06/29 06:24:04;;;;;;;12.70;4.80;;;;;;;;;;4940975;29;20413;-80
2023/06/29 06:26:30;;;;;;;7.23;4.17;;;;;;;;;;4958280;29;20567;-79
2023/06/29 06:28:56;;;;;;;6.13;4.20;;;;;;;;;;4940684;29;20457;-79
2023/06/29 06:31:22;;;;;;;8.63;3.67;;;;;;;;;;4940430;28;20432;-79
2023/06/29 06:33:52;;;;;;;5.70;3.80;;;;;;;;;;4940682;29;20435;-80
2023/06/29 06:36:20;;;;;;;6.70;4.60;;;;;;;;;;4957832;29;20467;-80
2023/06/29 06:38:46;;;;;;;11.73;4.87;;;;;;;;;;4925257;29;20563;-79
2023/06/29 06:41:12;;;;;;;13.80;4.90;;;;;;;;;;4957803;29;20413;-79
2023/06/29 06:43:38;;;;;;;12.70;4.77;;;;;;;;;;4941037;29;20453;-79
2023/06/29 06:46:04;;;;;;;10.53;4.97;;;;;;;;;;4924710;29;20454;-79
2023/06/29 06:48:30;;;;;;;10.60;4.70;;;;;;;;;;4957747;29;20404;-79
2023/06/29 06:50:56;;;;;;;6.97;4.87;;;;;;;;;;4957281;29;20464;-79
2023/06/29 06:53:22;;;;;;;6.03;3.83;;;;;;;;;;4940206;29;20446;-79
2023/06/29 06:55:48;;;;;;;5.20;3.70;;;;;;;;;;4940390;29;20443;-79
2023/06/29 06:58:14;;;;;;;6.40;4.00;;;;;;;;;;4957528;29;20455;-79
2023/06/29 07:00:40;;;;;;;9.77;4.43;;;;;;;;;;4940459;29;20423;-79
2023/06/29 07:03:06;;;;;;;9.97;4.47;;;;;;;;;;4956795;29;20779;-79
2023/06/29 07:05:32;;;;;;;7.60;3.83;;;;;;;;;;4924307;29;20555;-79
2023/06/29 07:07:58;;;;;;;7.73;4.70;;;;;;;;;;4939953;29;20483;-79
2023/06/29 07:10:24;;;;;;;8.73;3.70;;;;;;;;;;4957118;29;20433;-79
2023/06/29 07:12:50;;;;;;;7.40;4.43;;;;;;;;;;4940056;29;20426;-79
2023/06/29 07:15:16;;;;;;;5.70;3.67;;;;;;;;;;4940071;29;20416;-79
2023/06/29 07:17:42;;;;;;;6.10;4.57;;;;;;;;;;4956987;29;20935;-79
2023/06/29 07:20:08;;;;;;;6.00;4.40;;;;;;;;;;4956853;29;20405;-79
2023/06/29 07:22:34;;;;;;;6.80;4.10;;;;;;;;;;4940370;29;20411;-78
2023/06/29 07:25:00;;;;;;;6.57;4.90;;;;;;;;;;4923794;29;20783;-79
2023/06/29 07:27:26;;;;;;;6.50;4.00;;;;;;;;;;4939697;29;20472;-79
2023/06/29 07:29:53;;;;;;;6.60;4.67;;;;;;;;;;4956678;29;20423;-80
2023/06/29 07:32:19;;;;;;;6.70;4.07;;;;;;;;;;4956484;29;20521;-79
2023/06/29 07:34:45;;;;;;;7.77;4.90;;;;;;;;;;4956473;29;20441;-79
2023/06/29 07:37:11;;;;;;;7.73;4.90;;;;;;;;;;4956251;29;20422;-86
2023/06/29 07:39:37;;;;;;;8.27;4.50;;;;;;;;;;4939880;29;20425;-89
2023/06/29 07:42:03;;;;;;;8.47;4.77;;;;;;;;;;4923601;29;20413;-88
2023/06/29 07:44:29;;;;;;;8.60;4.20;;;;;;;;;;4956521;28;20504;-89
2023/06/29 07:46:56;;;;;;;9.90;4.17;;;;;;;;;;4923687;29;20464;-88
2023/06/29 07:49:22;;;;;;;11.97;4.70;;;;;;;;;;4939813;29;20424;-89
2023/06/29 07:51:48;;;;;;;7.50;4.40;;;;;;;;;;4924104;29;20476;-89
2023/06/29 07:54:14;;;;;;;10.17;5.47;;;;;;;;;;4920731;29;20916;-89
2023/06/29 07:56:40;;;;;;;7.33;5.00;;;;;;;;;;4936309;29;20461;-89
2023/06/29 07:59:06;;;;;;;9.70;5.87;;;;;;;;;;4951835;29;20425;-88
2023/06/29 08:01:36;;;;;;;8.80;5.10;;;;;;;;;;4951872;29;20421;-89
2023/06/29 08:04:02;;;;;;;11.67;4.97;;;;;;;;;;4952076;29;20781;-89
2023/06/29 08:06:28;;;;;;;11.03;5.43;;;;;;;;;;4951644;29;20524;-89
2023/06/29 08:08:54;;;;;;;10.37;5.23;;;;;;;;;;4936180;29;20413;-88
2023/06/29 08:11:21;;;;;;;13.60;5.77;;;;;;;;;;4952171;29;20473;-90
2023/06/29 08:13:47;;;;;;;9.63;6.10;;;;;;;;;;4937264;29;20432;-89
2023/06/29 08:16:14;;;;;;;17.30;7.90;;;;;;;;;;4936749;29;20418;-89
2023/06/29 08:18:40;;;;;;;10.97;7.70;;;;;;;;;;4935862;29;20412;-89
2023/06/29 08:21:06;;;;;;;9.90;8.03;;;;;;;;;;4951350;29;20500;-89
2023/06/29 08:23:35;;;;;;;12.17;8.20;;;;;;;;;;4935824;29;20464;-88
2023/06/29 08:26:01;;;;;;;12.33;8.80;;;;;;;;;;4951040;29;21032;-88
2023/06/29 08:28:27;;;;;;;12.73;8.30;;;;;;;;;;4935567;29;20822;-88
2023/06/29 08:30:53;;;;;;;9.90;7.83;;;;;;;;;;4936633;29;20402;-89
2023/06/29 08:33:20;;;;;;;10.10;7.70;;;;;;;;;;4935378;29;20756;-85
2023/06/29 08:35:46;;;;;;;11.97;7.53;;;;;;;;;;4949986;29;20437;-87
2023/06/29 08:38:11;;;;;;;10.70;7.20;;;;;;;;;;4924080;29;20417;-86
2023/06/29 08:40:39;;;;;;;12.80;8.27;;;;;;;;;;4929492;29;20426;-87
2023/06/29 08:43:05;;;;;;;10.30;8.63;;;;;;;;;;4917207;29;20402;-87
2023/06/29 08:45:31;;;;;;;12.43;9.03;;;;;;;;;;4915901;29;20422;-86
2023/06/29 08:47:57;;;;;;;14.10;9.07;;;;;;;;;;4917017;29;20466;-86
2023/06/29 08:50:26;;;;;;;13.20;9.77;;;;;;;;;;4915982;29;20423;-86
2023/06/29 08:52:52;;;;;;;8.70;7.80;;;;;;;;;;4917336;29;20425;-86
2023/06/29 08:55:19;;;;;;;12.60;8.70;;;;;;;;;;4904875;29;20436;-86
2023/06/29 08:57:45;;;;;;;17.83;8.00;;;;;;;;;;4924540;29;20425;-86
2023/06/29 09:00:13;;;;;;;10.00;8.43;;;;;;;;;;4959032;29;20413;-86
2023/06/29 09:02:39;;;;;;;11.90;9.47;;;;;;;;;;4959092;29;20400;-86
2023/06/29 09:05:06;;;;;;;10.40;8.60;;;;;;;;;;4925859;29;20512;-86
2023/06/29 09:07:34;;;;;;;9.90;8.57;;;;;;;;;;4942412;29;20528;-86
2023/06/29 09:10:00;;;;;;;12.63;7.63;;;;;;;;;;4958683;29;20416;-87
2023/06/29 09:12:27;;;;;;;11.93;8.73;;;;;;;;;;4957456;29;20471;-86
2023/06/29 09:14:57;;;;;;;12.40;8.30;;;;;;;;;;4957402;29;20471;-86
2023/06/29 09:17:22;;;;;;;9.53;7.30;;;;;;;;;;4958809;29;20448;-83
2023/06/29 09:19:56;;;;;;;10.73;7.30;;;;;;;;;;4942029;29;20458;-84
2023/06/29 09:22:23;;;;;;;11.90;7.90;;;;;;;;;;4957165;29;20432;-83
2023/06/29 09:24:50;;;;;;;13.00;8.50;;;;;;;;;;4958401;29;20762;-82
2023/06/29 09:27:16;;;;;;;16.73;8.30;;;;;;;;;;4956936;29;20530;-83
2023/06/29 09:29:50;;;;;;;11.57;7.23;;;;;;;;;;4957050;29;20466;-83
2023/06/29 09:32:15;;;;;;;11.33;7.67;;;;;;;;;;4957076;29;20764;-84
2023/06/29 09:34:46;;;;;;;18.97;8.77;;;;;;;;;;4941302;29;20413;-83
2023/06/29 09:37:13;;;;;;;12.40;7.43;;;;;;;;;;4958051;29;20908;-83
2023/06/29 09:39:39;;;;;;;12.67;7.90;;;;;;;;;;4958074;29;20893;-83
2023/06/29 09:42:05;;;;;;;14.20;8.23;;;;;;;;;;4958097;29;20430;-84
2023/06/29 09:44:31;;;;;;;12.73;8.90;;;;;;;;;;4956675;29;20431;-84
2023/06/29 09:47:05;;;;;;;11.90;7.90;;;;;;;;;;4956835;29;20476;-83
2023/06/29 09:49:31;;;;;;;11.80;8.60;;;;;;;;;;4957933;29;20556;-84
2023/06/29 09:52:04;;;;;;;16.07;8.27;;;;;;;;;;4957851;29;20435;-84
2023/06/29 09:54:37;;;;;;;10.47;8.20;;;;;;;;;;4957285;29;20652;-83
2023/06/29 09:57:03;;;;;;;13.37;8.03;;;;;;;;;;4957732;29;20404;-84
2023/06/29 09:59:32;;;;;;;14.57;7.90;;;;;;;;;;4957787;29;20762;-85
2023/06/29 10:01:58;;;;;;;12.57;8.50;;;;;;;;;;4956894;29;20488;-86
2023/06/29 10:04:25;;;;;;;10.60;7.63;;;;;;;;;;4957468;29;20413;-85
2023/06/29 10:06:54;;;;;;;12.90;7.40;;;;;;;;;;4956962;28;20515;-84
2023/06/29 10:09:21;;;;;;;10.53;7.63;;;;;;;;;;4956467;29;20429;-87
2023/06/29 10:11:51;;;;;;;20.27;9.00;;;;;;;;;;4957702;29;20480;-85
2023/06/29 10:14:18;;;;;;;14.30;8.70;;;;;;;;;;4949761;28;20480;-85
2023/06/29 10:16:52;;;;;;;13.47;8.77;;;;;;;;;;4954044;28;20835;-85
2023/06/29 10:19:22;;;;;;;17.23;10.10;;;;;;;;;;4949896;29;20440;-84
2023/06/29 10:22:01;;;;;;;15.37;10.10;;;;;;;;;;4919410;29;20864;-84
2023/06/29 10:24:31;;;;;;;15.50;9.17;;;;;;;;;;4959091;29;20766;-84
2023/06/29 10:26:58;;;;;;;13.80;8.97;;;;;;;;;;4958106;29;20532;-84
2023/06/29 10:29:24;;;;;;;15.77;10.30;;;;;;;;;;4958050;29;20383;-84
2023/06/29 10:31:56;;;;;;;13.60;9.30;;;;;;;;;;4956417;29;20432;-84
2023/06/29 10:34:22;;;;;;;11.70;8.50;;;;;;;;;;4956529;29;21007;-84
2023/06/29 10:36:51;;;;;;;14.37;8.73;;;;;;;;;;4957713;29;20412;-84
2023/06/29 10:39:35;;;;;;;18.87;8.83;;;;;;;;;;4957245;29;20404;-83
2023/06/29 10:42:01;;;;;;;10.93;7.53;;;;;;;;;;4957417;29;20432;-84
2023/06/29 10:44:34;;;;;;;10.07;6.67;;;;;;;;;;4956057;29;20435;-85
2023/06/29 10:47:00;;;;;;;13.30;8.43;;;;;;;;;;4957220;29;20472;-85
2023/06/29 10:49:28;;;;;;;9.77;7.67;;;;;;;;;;4940367;29;20429;-85
2023/06/29 10:52:04;;;;;;;9.23;6.80;;;;;;;;;;4956159;29;20432;-85
2023/06/29 10:54:30;;;;;;;11.30;7.00;;;;;;;;;;4955390;29;20507;-84
2023/06/29 10:57:06;;;;;;;8.33;6.27;;;;;;;;;;4939821;29;20425;-85
2023/06/29 10:59:34;;;;;;;15.30;6.17;;;;;;;;;;4957140;29;20404;-85
2023/06/29 11:02:00;;;;;;;8.23;6.33;;;;;;;;;;4955612;29;20519;-84
2023/06/29 11:04:28;;;;;;;9.67;6.77;;;;;;;;;;4955336;29;20424;-85
2023/06/29 11:06:54;;;;;;;9.70;7.07;;;;;;;;;;4955471;29;20504;-85
2023/06/29 11:09:19;;;;;;;9.87;7.40;;;;;;;;;;4955694;29;20475;-84
2023/06/29 11:11:47;;;;;;;9.57;7.03;;;;;;;;;;4939368;29;20440;-85
2023/06/29 11:14:13;;;;;;;7.70;6.00;;;;;;;;;;4938900;29;20468;-85
2023/06/29 11:16:39;;;;;;;10.87;7.10;;;;;;;;;;4956900;29;20451;-85
2023/06/29 11:19:06;;;;;;;14.23;7.60;;;;;;;;;;4938207;29;20744;-86
2023/06/29 11:21:32;;;;;;;9.93;6.20;;;;;;;;;;4939773;29;20440;-85
2023/06/29 11:23:58;;;;;;;11.60;6.23;;;;;;;;;;4955166;29;20427;-86
2023/06/29 11:26:24;;;;;;;9.17;7.20;;;;;;;;;;4956418;29;20479;-86
2023/06/29 11:28:50;;;;;;;12.47;6.87;;;;;;;;;;4956222;29;20468;-85
2023/06/29 11:31:17;;;;;;;9.70;6.83;;;;;;;;;;4955877;29;20405;-85
2023/06/29 11:33:49;;;;;;;10.83;7.33;;;;;;;;;;4956557;29;20733;-85
2023/06/29 11:36:15;;;;;;;8.37;6.30;;;;;;;;;;4954919;29;20436;-84
2023/06/29 11:42:17;;;;;;;12.10;7.40;;;;;;;;;;5070810;28;20625;-87
2023/06/29 11:44:43;;;;;;;12.50;7.27;;;;;;;;;;5069694;28;20453;-89
2023/06/29 11:47:09;;;;;;;9.40;6.47;;;;;;;;;;5052749;28;20420;-87
2023/06/29 11:49:35;;;;;;;11.10;7.57;;;;;;;;;;5069515;28;20423;-87
2023/06/29 11:52:03;;;;;;;8.00;6.77;;;;;;;;;;5068933;28;20974;-87
2023/06/29 11:54:30;;;;;;;9.17;7.00;;;;;;;;;;5069027;28;20450;-86
2023/06/29 11:56:56;;;;;;;9.47;6.90;;;;;;;;;;5070430;28;20898;-86
2023/06/29 11:59:23;;;;;;;12.47;8.13;;;;;;;;;;5069972;28;20439;-86
2023/06/29 12:01:49;;;;;;;11.43;7.30;;;;;;;;;;5070439;28;20466;-87
2023/06/29 12:04:15;;;;;;;14.83;8.53;;;;;;;;;;5069036;28;20907;-86
2023/06/29 12:06:51;;;;;;;9.97;8.57;;;;;;;;;;5069083;28;20451;-86
2023/06/29 12:09:18;;;;;;;14.40;8.67;;;;;;;;;;5068792;28;20411;-86
2023/06/29 12:11:44;;;;;;;10.07;8.10;;;;;;;;;;5068622;28;20493;-87
2023/06/29 12:14:10;;;;;;;11.90;8.23;;;;;;;;;;5068097;28;20423;-86
2023/06/29 12:16:42;;;;;;;16.57;10.70;;;;;;;;;;5068805;28;20465;-86
2023/06/29 12:19:11;;;;;;;13.67;11.13;;;;;;;;;;5069845;28;20396;-86
2023/06/29 12:21:37;;;;;;;18.43;10.60;;;;;;;;;;5070001;28;20395;-85
2023/06/29 12:24:03;;;;;;;13.87;10.60;;;;;;;;;;5051942;28;20426;-86
2023/06/29 12:26:30;;;;;;;18.13;12.50;;;;;;;;;;5068289;28;20403;-87
2023/06/29 12:28:56;;;;;;;19.20;11.40;;;;;;;;;;5068735;28;20407;-86
2023/06/29 12:31:28;;;;;;;17.33;11.70;;;;;;;;;;5067823;28;20906;-87
2023/06/29 12:33:55;;;;;;;16.73;12.00;;;;;;;;;;5067808;28;20419;-86
2023/06/29 12:36:21;;;;;;;15.63;12.83;;;;;;;;;;5067708;28;20817;-86
2023/06/29 12:38:50;;;;;;;15.40;11.90;;;;;;;;;;5068559;28;20457;-86
2023/06/29 12:41:16;;;;;;;17.73;12.50;;;;;;;;;;5068282;28;20471;-85
2023/06/29 12:43:42;;;;;;;15.63;12.80;;;;;;;;;;5051303;28;20950;-84
2023/06/29 12:46:09;;;;;;;16.33;12.73;;;;;;;;;;5068839;28;20442;-82
2023/06/29 12:48:36;;;;;;;15.07;12.30;;;;;;;;;;5067889;28;20416;-84
2023/06/29 12:51:02;;;;;;;19.83;13.87;;;;;;;;;;5067982;28;20459;-82
2023/06/29 12:53:28;;;;;;;19.13;12.10;;;;;;;;;;5054546;28;20917;-85
2023/06/29 12:55:54;;;;;;;16.33;12.73;;;;;;;;;;5037006;28;20494;-85
2023/06/29 12:58:20;;;;;;;16.30;12.90;;;;;;;;;;5055338;28;20403;-85
2023/06/29 13:00:46;;;;;;;19.13;12.63;;;;;;;;;;5055274;28;20412;-84
2023/06/29 13:03:14;;;;;;;16.67;13.50;;;;;;;;;;5054366;28;20461;-85
2023/06/29 13:05:40;;;;;;;15.87;13.10;;;;;;;;;;5055442;28;20404;-84
2023/06/29 13:08:06;;;;;;;17.30;13.13;;;;;;;;;;5054274;28;20419;-85
2023/06/29 13:10:33;;;;;;;19.40;14.17;;;;;;;;;;5053756;28;20982;-84
2023/06/29 13:12:59;;;;;;;16.57;13.67;;;;;;;;;;5055268;28;20415;-84
2023/06/29 13:15:25;;;;;;;19.87;14.43;;;;;;;;;;5053989;28;20416;-84
2023/06/29 13:17:51;;;;;;;23.20;15.80;;;;;;;;;;5054930;28;20400;-84
2023/06/29 13:20:18;;;;;;;15.90;14.00;;;;;;;;;;5037098;28;20513;-84
2023/06/29 13:22:43;;;;;;;17.43;15.13;;;;;;;;;;5054006;28;20451;-84
2023/06/29 13:25:10;;;;;;;20.63;14.90;;;;;;;;;;5054106;28;20447;-87
2023/06/29 13:27:39;;;;;;;20.70;16.97;;;;;;;;;;5054226;28;20428;-88
2023/06/29 13:30:05;;;;;;;25.97;16.50;;;;;;;;;;5054333;28;20805;-88
2023/06/29 13:32:31;;;;;;;19.90;17.13;;;;;;;;;;5061635;28;20412;-85
2023/06/29 13:34:57;;;;;;;24.17;17.70;;;;;;;;;;5057860;28;20495;-86
2023/06/29 13:37:23;;;;;;;23.10;18.97;;;;;;;;;;5057044;28;20407;-84
2023/06/29 13:39:49;;;;;;;25.53;17.63;;;;;;;;;;5038270;28;20419;-84
2023/06/29 13:42:16;;;;;;;28.30;19.50;;;;;;;;;;5055994;28;20778;-86
2023/06/29 13:44:42;;;;;;;24.23;18.50;;;;;;;;;;5054736;28;20408;-85
2023/06/29 13:47:10;;;;;;;25.63;19.50;;;;;;;;;;5054551;28;20412;-84
2023/06/29 13:49:36;;;;;;;27.90;19.40;;;;;;;;;;5054195;28;20431;-84
2023/06/29 13:52:02;;;;;;;22.50;16.33;;;;;;;;;;5054246;28;20475;-84
2023/06/29 13:54:28;;;;;;;31.47;18.97;;;;;;;;;;5053987;28;20438;-84
2023/06/29 13:56:54;;;;;;;25.57;18.67;;;;;;;;;;5054033;28;20985;-86
2023/06/29 13:59:20;;;;;;;23.80;17.93;;;;;;;;;;5053722;28;20458;-86
2023/06/29 14:01:46;;;;;;;28.93;18.63;;;;;;;;;;5054886;28;20408;-86
2023/06/29 14:04:12;;;;;;;25.37;19.40;;;;;;;;;;5051226;28;20386;-86
2023/06/29 14:06:39;;;;;;;25.20;17.87;;;;;;;;;;5053494;28;20420;-85
2023/06/29 14:09:09;;;;;;;20.50;17.10;;;;;;;;;;5053895;28;20502;-86
2023/06/29 14:11:35;;;;;;;23.80;17.20;;;;;;;;;;5052716;28;20502;-87
2023/06/29 14:14:01;;;;;;;24.97;16.80;;;;;;;;;;5053105;28;20416;-87
2023/06/29 14:16:28;;;;;;;22.80;17.30;;;;;;;;;;5053174;28;20486;-89
2023/06/29 14:18:54;;;;;;;31.30;17.20;;;;;;;;;;5052937;28;20514;-88
2023/06/29 14:21:20;;;;;;;24.60;18.10;;;;;;;;;;5036495;28;20425;-88
2023/06/29 14:23:46;;;;;;;25.40;15.63;;;;;;;;;;5052997;28;20758;-88
2023/06/29 14:26:12;;;;;;;23.67;18.40;;;;;;;;;;5052417;28;20390;-87
2023/06/29 14:28:39;;;;;;;23.00;17.20;;;;;;;;;;5052081;28;20406;-85
2023/06/29 14:31:05;;;;;;;20.57;17.07;;;;;;;;;;5052314;28;20460;-85
2023/06/29 14:33:33;;;;;;;23.23;17.07;;;;;;;;;;5053180;28;20458;-85